Time;durP1;ratioP1;P1;durP2;ratioP2;P2;SDS_P1;SDS_P2;PMS_P1;PMS_P2;Temp;Humidity;BMP_temperature;BMP_pressure;BME280_temperature;BME280_humidity;BME280_pressure;Samples;Min_cycle;Max_cycle;Signal;HPM_P1;HPM_P2
2023/04/02 00:02:30;;;;;;;5.07;1.50;;;0.30;99.90;;;;;;5003816;28;20239;-79
2023/04/02 00:05:33;;;;;;;4.90;1.60;;;0.30;99.90;;;;;;4982077;28;20224;-79
2023/04/02 00:08:03;;;;;;;5.17;1.37;;;0.30;99.90;;;;;;4995613;28;20248;-79
2023/04/02 00:10:33;;;;;;;4.87;1.33;;;0.30;99.90;;;;;;5000742;28;20224;-81
2023/04/02 00:13:06;;;;;;;4.93;1.53;;;0.30;99.90;;;;;;4981897;28;20222;-79
2023/04/02 00:15:34;;;;;;;5.67;1.33;;;0.30;99.90;;;;;;4998563;28;20233;-80
2023/04/02 00:18:02;;;;;;;3.57;1.10;;;0.30;99.90;;;;;;4998834;28;20941;-78
2023/04/02 00:20:32;;;;;;;4.40;1.23;;;0.30;99.90;;;;;;4997438;28;20237;-80
2023/04/02 00:23:02;;;;;;;5.97;1.43;;;0.30;99.90;;;;;;4997416;28;20221;-79
2023/04/02 00:25:33;;;;;;;4.87;1.20;;;0.20;99.90;;;;;;4996420;28;20291;-79
2023/04/02 00:28:00;;;;;;;4.47;1.37;;;0.20;99.90;;;;;;4999216;28;20224;-79
2023/04/02 00:30:27;;;;;;;4.17;1.40;;;0.20;99.90;;;;;;4984135;28;20221;-78
2023/04/02 00:32:54;;;;;;;3.93;1.53;;;0.20;99.90;;;;;;4998966;28;20229;-78
2023/04/02 00:35:26;;;;;;;3.77;1.40;;;0.20;99.90;;;;;;4980648;28;20320;-79
2023/04/02 00:37:53;;;;;;;6.70;2.03;;;0.20;99.90;;;;;;4998045;28;20361;-81
2023/04/02 00:40:25;;;;;;;3.60;1.10;;;0.20;99.90;;;;;;4999362;28;20915;-78
2023/04/02 00:42:53;;;;;;;4.17;1.20;;;0.20;99.90;;;;;;4984360;28;20232;-79
2023/04/02 00:45:24;;;;;;;4.93;1.40;;;0.20;99.90;;;;;;4981536;28;20233;-79
2023/04/02 00:47:51;;;;;;;4.13;1.53;;;0.20;99.90;;;;;;4997672;28;20233;-78
2023/04/02 00:50:24;;;;;;;6.47;1.43;;;0.20;99.90;;;;;;4978078;28;20649;-79
2023/04/02 00:52:53;;;;;;;3.97;1.37;;;0.20;99.90;;;;;;4982418;28;20602;-80
2023/04/02 00:55:25;;;;;;;3.80;1.20;;;0.20;99.90;;;;;;4998354;28;20224;-78
2023/04/02 00:57:59;;;;;;;3.27;1.33;;;0.20;99.90;;;;;;5000456;28;20228;-78
2023/04/02 01:00:30;;;;;;;3.67;1.30;;;0.20;99.90;;;;;;4980054;28;20222;-78
2023/04/02 01:03:34;;;;;;;4.70;1.43;;;0.20;99.90;;;;;;4983174;28;20252;-78
2023/04/02 01:06:09;;;;;;;4.97;1.40;;;0.20;99.90;;;;;;4936568;28;20219;-80
2023/04/02 01:08:49;;;;;;;4.90;1.30;;;0.20;99.90;;;;;;4936442;28;20740;-79
2023/04/02 01:11:41;;;;;;;5.47;1.43;;;0.10;99.90;;;;;;4971323;28;20229;-81
2023/04/02 01:14:19;;;;;;;4.07;1.37;;;0.10;99.90;;;;;;4992229;28;20249;-81
2023/04/02 01:16:52;;;;;;;4.90;1.37;;;0.10;99.90;;;;;;4981271;28;20319;-81
2023/04/02 01:19:51;;;;;;;4.23;1.23;;;0.10;99.90;;;;;;4980785;28;20304;-78
2023/04/02 01:22:22;;;;;;;4.30;1.23;;;0.10;99.90;;;;;;4994104;28;20756;-81
2023/04/02 01:24:49;;;;;;;6.37;1.63;;;0.10;99.90;;;;;;4996491;28;20398;-77
2023/04/02 01:27:23;;;;;;;3.47;1.30;;;0.10;99.90;;;;;;4978671;28;20769;-77
2023/04/02 01:29:55;;;;;;;4.37;1.37;;;0.00;99.90;;;;;;4997068;28;20816;-78
2023/04/02 01:32:25;;;;;;;4.37;1.20;;;0.00;99.90;;;;;;4991869;28;20799;-78
2023/04/02 01:34:52;;;;;;;3.90;1.47;;;0.00;99.90;;;;;;4995550;28;20224;-79
2023/04/02 01:37:33;;;;;;;5.07;1.27;;;0.00;99.90;;;;;;4980222;28;20261;-78
2023/04/02 01:40:10;;;;;;;3.23;1.20;;;0.00;99.90;;;;;;4997497;28;20761;-79
2023/04/02 01:42:41;;;;;;;5.47;1.73;;;0.00;99.90;;;;;;4983037;28;20757;-78
2023/04/02 01:45:13;;;;;;;4.40;1.30;;;0.00;99.90;;;;;;4998758;28;20229;-78
2023/04/02 01:47:42;;;;;;;3.53;1.40;;;0.00;99.90;;;;;;4983131;28;20689;-77
2023/04/02 01:50:23;;;;;;;3.77;1.40;;;0.00;99.90;;;;;;4996449;28;20896;-80
2023/04/02 01:52:54;;;;;;;3.37;1.30;;;0.10;99.90;;;;;;4982844;28;20262;-78
2023/04/02 01:55:30;;;;;;;3.67;1.13;;;0.10;99.90;;;;;;4978027;28;20925;-81
2023/04/02 01:57:59;;;;;;;4.17;1.20;;;0.20;99.90;;;;;;4982891;28;20744;-79
2023/04/02 02:00:29;;;;;;;2.70;1.40;;;0.20;99.90;;;;;;4980657;28;21234;-78
2023/04/02 02:02:56;;;;;;;4.00;1.30;;;0.30;99.90;;;;;;4985432;28;20231;-79
2023/04/02 02:05:23;;;;;;;3.87;1.13;;;0.30;99.90;;;;;;4999257;28;20825;-78
2023/04/02 02:07:55;;;;;;;8.23;1.60;;;0.30;99.90;;;;;;4985135;28;20221;-78
2023/04/02 02:10:27;;;;;;;6.20;1.30;;;0.30;99.90;;;;;;4994396;28;20736;-78
2023/04/02 02:12:54;;;;;;;5.63;1.47;;;0.40;99.90;;;;;;5002739;28;20225;-79
2023/04/02 02:15:23;;;;;;;5.23;1.17;;;0.30;99.90;;;;;;4999514;28;20224;-77
2023/04/02 02:17:57;;;;;;;4.67;1.80;;;0.40;99.90;;;;;;5001946;28;20643;-82
2023/04/02 02:20:26;;;;;;;2.37;1.20;;;0.40;99.90;;;;;;5001112;28;20239;-79
2023/04/02 02:22:53;;;;;;;4.83;1.43;;;0.40;99.90;;;;;;4986762;28;20240;-78
2023/04/02 02:25:22;;;;;;;3.60;1.20;;;0.40;99.90;;;;;;5002631;28;20224;-80
2023/04/02 02:27:57;;;;;;;3.50;1.07;;;0.40;99.90;;;;;;4984805;28;20220;-79
2023/04/02 02:30:28;;;;;;;3.77;1.10;;;0.30;99.90;;;;;;4984139;28;20235;-78
2023/04/02 02:33:02;;;;;;;6.47;2.10;;;0.30;99.90;;;;;;5003217;28;20219;-80
2023/04/02 02:35:33;;;;;;;4.57;1.33;;;0.30;99.90;;;;;;4985563;28;20947;-78
2023/04/02 02:38:10;;;;;;;4.83;1.60;;;0.20;99.90;;;;;;4999220;28;20217;-79
2023/04/02 02:40:42;;;;;;;4.03;1.37;;;0.20;99.90;;;;;;4987410;28;20640;-80
2023/04/02 02:43:13;;;;;;;3.57;1.10;;;0.20;99.90;;;;;;4998961;28;20241;-82
2023/04/02 02:45:42;;;;;;;4.07;1.30;;;0.20;99.90;;;;;;5000807;28;20237;-78
2023/04/02 02:48:15;;;;;;;3.53;1.17;;;0.20;99.90;;;;;;5000674;28;20233;-81
2023/04/02 02:50:43;;;;;;;2.97;1.33;;;0.10;99.90;;;;;;4987046;28;20218;-78
2023/04/02 02:53:17;;;;;;;2.53;1.03;;;0.10;99.90;;;;;;5001066;28;20221;-79
2023/04/02 02:55:45;;;;;;;2.97;1.10;;;0.10;99.90;;;;;;4999626;28;20225;-80
2023/04/02 02:58:25;;;;;;;4.60;1.30;;;0.10;99.90;;;;;;4983583;28;20224;-79
2023/04/02 03:01:12;;;;;;;6.97;1.40;;;0.00;99.90;;;;;;4998371;28;20224;-80
2023/04/02 03:03:44;;;;;;;1.97;0.90;;;0.00;99.90;;;;;;4983878;28;20260;-78
2023/04/02 03:06:16;;;;;;;3.23;1.33;;;0.00;99.90;;;;;;4982248;28;20601;-80
2023/04/02 03:08:51;;;;;;;6.03;1.30;;;-0.10;99.90;;;;;;5001390;28;20602;-81
2023/04/02 03:11:28;;;;;;;4.17;1.63;;;-0.10;99.90;;;;;;4996977;28;20246;-80
2023/04/02 03:14:01;;;;;;;3.73;1.30;;;-0.10;99.90;;;;;;4989519;28;20246;-81
2023/04/02 03:16:34;;;;;;;3.13;1.07;;;-0.20;99.90;;;;;;4997433;28;20310;-80
2023/04/02 03:19:08;;;;;;;2.87;1.13;;;-0.20;99.90;;;;;;4997096;28;20228;-78
2023/04/02 03:21:39;;;;;;;6.30;1.27;;;-0.20;99.90;;;;;;4982320;28;20220;-79
2023/04/02 03:24:14;;;;;;;2.93;1.10;;;-0.20;99.90;;;;;;4984681;28;20228;-80
2023/04/02 03:26:49;;;;;;;4.20;1.77;;;-0.30;99.90;;;;;;4983204;28;20710;-80
2023/04/02 03:29:18;;;;;;;3.67;1.20;;;-0.30;99.90;;;;;;5000064;28;20218;-85
2023/04/02 03:31:50;;;;;;;5.70;1.60;;;-0.30;99.90;;;;;;4999039;28;20240;-82
2023/04/02 03:34:24;;;;;;;4.70;1.30;;;-0.30;99.90;;;;;;4985725;28;20285;-83
2023/04/02 03:36:57;;;;;;;4.43;1.10;;;-0.30;99.90;;;;;;4986354;28;20263;-82
2023/04/02 03:39:29;;;;;;;3.83;1.20;;;-0.40;99.90;;;;;;4985688;28;20238;-85
2023/04/02 03:42:00;;;;;;;3.70;1.20;;;-0.40;99.90;;;;;;4985446;28;20235;-84
2023/04/02 03:44:30;;;;;;;4.23;1.13;;;-0.40;99.90;;;;;;4982284;28;20964;-81
2023/04/02 03:47:03;;;;;;;3.50;1.23;;;-0.40;99.90;;;;;;5003527;28;20221;-83
2023/04/02 03:49:37;;;;;;;2.63;1.17;;;-0.50;99.90;;;;;;4998834;28;20350;-82
2023/04/02 03:52:09;;;;;;;4.97;1.40;;;-0.50;99.90;;;;;;4986902;28;20942;-83
2023/04/02 03:54:37;;;;;;;2.57;1.00;;;-0.50;99.90;;;;;;4985338;28;20317;-83
2023/04/02 03:57:11;;;;;;;3.67;1.00;;;-0.50;99.90;;;;;;4986445;28;20221;-84
2023/04/02 03:59:42;;;;;;;2.83;1.20;;;-0.50;99.90;;;;;;5004652;28;20244;-82
2023/04/02 04:02:25;;;;;;;1.67;1.00;;;-0.50;99.90;;;;;;4999137;28;20236;-84
2023/04/02 04:04:56;;;;;;;3.33;1.20;;;-0.60;99.90;;;;;;4984961;28;20225;-79
2023/04/02 04:07:31;;;;;;;4.80;1.27;;;-0.60;99.90;;;;;;4983652;28;20241;-78
2023/04/02 04:09:59;;;;;;;5.97;1.27;;;-0.60;99.90;;;;;;4999141;28;20319;-80
2023/04/02 04:12:32;;;;;;;3.10;1.33;;;-0.60;99.90;;;;;;5000817;28;20253;-81
2023/04/02 04:15:07;;;;;;;2.97;1.20;;;-0.60;99.90;;;;;;4986768;28;20251;-82
2023/04/02 04:17:40;;;;;;;7.33;1.57;;;-0.60;99.90;;;;;;4983411;28;20329;-79
2023/04/02 04:20:20;;;;;;;5.77;1.27;;;-0.60;99.90;;;;;;4987270;28;20236;-80
2023/04/02 04:22:54;;;;;;;3.13;1.10;;;-0.50;99.90;;;;;;4985373;28;20236;-80
2023/04/02 04:25:29;;;;;;;1.60;0.90;;;-0.50;99.90;;;;;;4998695;28;20223;-82
2023/04/02 04:28:06;;;;;;;9.37;1.30;;;-0.50;99.90;;;;;;5000886;28;20228;-81
2023/04/02 04:30:45;;;;;;;1.63;0.87;;;-0.40;99.90;;;;;;5000206;28;20235;-80
2023/04/02 04:33:21;;;;;;;3.20;0.87;;;-0.40;99.90;;;;;;4996274;28;20228;-80
2023/04/02 04:35:55;;;;;;;2.50;0.97;;;-0.40;99.90;;;;;;4981948;28;20236;-81
2023/04/02 04:38:31;;;;;;;3.23;1.00;;;-0.30;99.90;;;;;;4983726;28;20767;-80
2023/04/02 04:41:05;;;;;;;3.47;1.27;;;-0.40;99.90;;;;;;4986576;28;20616;-81
2023/04/02 04:43:42;;;;;;;2.13;1.07;;;-0.30;99.90;;;;;;4986194;28;20229;-80
2023/04/02 04:46:14;;;;;;;2.47;1.00;;;-0.30;99.90;;;;;;4998269;28;20251;-81
2023/04/02 04:48:50;;;;;;;3.07;1.13;;;-0.20;99.90;;;;;;4984848;28;20217;-80
2023/04/02 04:51:24;;;;;;;3.27;1.00;;;-0.10;99.90;;;;;;4983256;28;20225;-81
2023/04/02 04:53:53;;;;;;;2.80;1.00;;;-0.10;99.90;;;;;;4996505;28;20308;-78
2023/04/02 04:56:26;;;;;;;3.53;1.20;;;-0.10;99.90;;;;;;5000590;28;20315;-79
2023/04/02 04:59:02;;;;;;;2.57;1.10;;;0.00;99.90;;;;;;4988738;28;20231;-77
2023/04/02 05:01:35;;;;;;;3.07;1.20;;;0.00;99.90;;;;;;4985961;28;20235;-75
2023/04/02 05:04:07;;;;;;;4.30;1.10;;;0.10;99.90;;;;;;5003497;28;20224;-78
2023/04/02 05:06:40;;;;;;;2.67;0.80;;;0.20;99.90;;;;;;4988090;28;20319;-78
2023/04/02 05:09:15;;;;;;;3.00;0.70;;;0.30;99.90;;;;;;4989771;28;20292;-79
2023/04/02 05:11:47;;;;;;;5.03;1.10;;;0.30;99.90;;;;;;4989240;28;20311;-78
2023/04/02 05:14:22;;;;;;;3.63;1.00;;;0.40;99.90;;;;;;4987621;28;20247;-77
2023/04/02 05:16:56;;;;;;;2.67;1.03;;;0.50;99.90;;;;;;4998733;28;20232;-78
2023/04/02 05:19:30;;;;;;;2.97;0.80;;;0.50;99.90;;;;;;4984321;28;20229;-78
2023/04/02 05:22:05;;;;;;;5.50;1.03;;;0.60;99.90;;;;;;4987248;28;20982;-79
2023/04/02 05:24:56;;;;;;;5.27;1.20;;;0.60;99.90;;;;;;5004790;28;20785;-79
2023/04/02 05:27:33;;;;;;;3.43;1.17;;;0.70;99.90;;;;;;5001918;28;20221;-79
2023/04/02 05:30:09;;;;;;;3.83;1.00;;;0.70;99.90;;;;;;5004348;28;20224;-78
2023/04/02 05:32:40;;;;;;;1.87;0.93;;;0.80;99.90;;;;;;4986816;28;20224;-78
2023/04/02 05:35:16;;;;;;;2.03;1.07;;;0.90;99.90;;;;;;4986871;28;20233;-79
2023/04/02 05:37:45;;;;;;;5.23;1.57;;;1.00;99.90;;;;;;4987808;28;20229;-78
2023/04/02 05:40:18;;;;;;;5.60;1.30;;;1.10;99.90;;;;;;4983706;28;20227;-77
2023/04/02 05:42:49;;;;;;;3.90;1.20;;;1.10;99.90;;;;;;4980512;28;20240;-77
2023/04/02 05:45:24;;;;;;;4.47;1.10;;;1.20;99.90;;;;;;4981724;28;20260;-78
2023/04/02 05:47:58;;;;;;;2.87;1.00;;;1.30;99.90;;;;;;4982354;28;21005;-77
2023/04/02 05:50:35;;;;;;;3.07;1.03;;;1.40;99.90;;;;;;4983021;28;20240;-77
2023/04/02 05:53:09;;;;;;;3.87;0.90;;;1.50;99.90;;;;;;4977725;28;20227;-77
2023/04/02 05:55:48;;;;;;;3.20;0.90;;;1.50;99.90;;;;;;4978951;28;20233;-78
2023/04/02 05:58:21;;;;;;;3.73;1.20;;;1.60;99.90;;;;;;4979894;28;20213;-78
2023/04/02 06:01:06;;;;;;;4.63;0.90;;;1.70;99.90;;;;;;4971241;28;20718;-77
2023/04/02 06:03:43;;;;;;;4.50;1.10;;;1.80;99.90;;;;;;4973979;28;20642;-78
2023/04/02 06:06:18;;;;;;;5.03;1.10;;;2.00;99.90;;;;;;4986600;28;20797;-78
2023/04/02 06:08:56;;;;;;;1.07;0.97;;;2.10;99.90;;;;;;5002884;28;20229;-78
2023/04/02 06:11:28;;;;;;;3.23;0.90;;;2.20;99.90;;;;;;5001979;28;20304;-78
2023/04/02 06:13:56;;;;;;;3.30;0.70;;;2.40;99.90;;;;;;5002390;28;20241;-78
2023/04/02 06:16:30;;;;;;;1.57;0.70;;;2.50;99.90;;;;;;4998689;28;20244;-78
2023/04/02 06:18:58;;;;;;;2.63;0.90;;;2.60;99.90;;;;;;5001815;28;20226;-78
2023/04/02 06:21:25;;;;;;;4.77;1.10;;;2.70;99.90;;;;;;4987956;28;20239;-78
2023/04/02 06:23:57;;;;;;;3.03;1.13;;;2.90;99.90;;;;;;4989375;28;20245;-78
2023/04/02 06:26:31;;;;;;;2.43;0.70;;;3.00;99.90;;;;;;5004088;28;20236;-78
2023/04/02 06:29:03;;;;;;;3.47;1.07;;;3.20;99.90;;;;;;4986229;28;20703;-78
2023/04/02 06:31:35;;;;;;;5.23;1.63;;;3.40;99.90;;;;;;4979164;28;20226;-79
2023/04/02 06:34:06;;;;;;;2.20;0.77;;;3.50;99.90;;;;;;4980474;28;20228;-77
2023/04/02 06:36:34;;;;;;;3.13;1.00;;;3.60;99.90;;;;;;4983597;28;20237;-78
2023/04/02 06:39:11;;;;;;;2.10;0.80;;;3.70;99.90;;;;;;5003132;28;20244;-76
2023/04/02 06:41:38;;;;;;;2.77;1.10;;;3.70;99.90;;;;;;4984328;28;20229;-77
2023/04/02 06:44:26;;;;;;;1.53;0.80;;;3.80;99.90;;;;;;5001774;28;20358;-77
2023/04/02 06:47:06;;;;;;;2.10;0.87;;;3.80;99.90;;;;;;4981767;28;20553;-77
2023/04/02 06:49:39;;;;;;;2.90;0.83;;;3.80;99.90;;;;;;4983515;28;20226;-77
2023/04/02 06:52:15;;;;;;;2.57;0.70;;;3.80;99.90;;;;;;4989306;28;20229;-76
2023/04/02 06:54:43;;;;;;;3.60;1.37;;;3.80;99.90;;;;;;4987715;28;20658;-77
2023/04/02 06:57:13;;;;;;;1.83;0.87;;;3.80;99.90;;;;;;5002638;28;20716;-77
2023/04/02 06:59:42;;;;;;;2.90;0.90;;;3.80;99.90;;;;;;4987018;28;20233;-77
2023/04/02 07:02:27;;;;;;;2.77;0.70;;;3.80;99.90;;;;;;4989091;28;20220;-75
2023/04/02 07:04:58;;;;;;;2.90;1.30;;;3.80;99.90;;;;;;5004532;28;20240;-77
2023/04/02 07:07:25;;;;;;;3.17;1.03;;;3.80;99.90;;;;;;4986651;28;20226;-76
2023/04/02 07:09:53;;;;;;;2.53;0.73;;;3.90;99.90;;;;;;5001334;28;20332;-76
2023/04/02 07:12:23;;;;;;;2.97;0.87;;;3.90;99.90;;;;;;4999259;28;20309;-76
2023/04/02 07:14:50;;;;;;;3.40;0.93;;;4.00;99.90;;;;;;5000925;28;20317;-76
2023/04/02 07:17:18;;;;;;;2.10;0.87;;;4.00;99.90;;;;;;4980478;28;20238;-76
2023/04/02 07:19:48;;;;;;;2.90;0.90;;;4.00;99.90;;;;;;4997146;28;20713;-76
2023/04/02 07:22:17;;;;;;;1.73;0.77;;;4.10;99.90;;;;;;4978984;28;20225;-75
2023/04/02 07:24:45;;;;;;;5.17;1.00;;;4.20;99.90;;;;;;4983647;28;20219;-76
2023/04/02 07:27:14;;;;;;;4.13;0.90;;;4.20;99.90;;;;;;4978886;28;20218;-76
2023/04/02 07:29:42;;;;;;;2.37;1.00;;;4.30;99.90;;;;;;5003239;28;20232;-76
2023/04/02 07:32:09;;;;;;;3.57;0.93;;;4.30;99.90;;;;;;4999633;28;20928;-76
2023/04/02 07:34:36;;;;;;;3.37;1.00;;;4.40;99.90;;;;;;4996618;28;20317;-75
2023/04/02 07:37:03;;;;;;;2.37;0.70;;;4.30;99.90;;;;;;5002716;28;20841;-76
2023/04/02 07:39:30;;;;;;;2.40;0.80;;;4.30;99.90;;;;;;5001106;28;20314;-76
2023/04/02 07:41:58;;;;;;;3.10;0.90;;;4.30;99.90;;;;;;5000901;28;20210;-76
2023/04/02 07:44:27;;;;;;;2.80;0.80;;;4.30;99.90;;;;;;4999102;28;20232;-75
2023/04/02 07:46:53;;;;;;;2.77;1.13;;;4.30;99.90;;;;;;4999772;28;20218;-76
2023/04/02 07:49:21;;;;;;;4.70;0.77;;;4.30;99.90;;;;;;4987861;28;20247;-77
2023/04/02 07:51:47;;;;;;;1.93;0.67;;;4.40;99.90;;;;;;5001369;28;20689;-76
2023/04/02 07:54:14;;;;;;;3.50;1.20;;;4.50;99.90;;;;;;4998958;28;20227;-76
2023/04/02 07:56:41;;;;;;;2.67;0.70;;;4.60;99.90;;;;;;4999894;28;20260;-75
2023/04/02 07:59:07;;;;;;;4.87;1.10;;;4.90;99.90;;;;;;4975459;28;20222;-75
2023/04/02 08:01:36;;;;;;;3.20;1.07;;;5.30;99.90;;;;;;4999396;28;20807;-77
2023/04/02 08:04:04;;;;;;;8.40;4.20;;;5.80;99.90;;;;;;5002541;28;20433;-75
2023/04/02 08:06:31;;;;;;;5.53;3.10;;;6.40;99.90;;;;;;5000589;28;20643;-76
2023/04/02 08:08:58;;;;;;;3.67;1.20;;;7.00;99.90;;;;;;4999294;28;20282;-76
2023/04/02 08:11:25;;;;;;;1.43;0.73;;;7.70;99.90;;;;;;5001026;28;20309;-77
2023/04/02 08:13:52;;;;;;;2.03;0.70;;;8.20;99.90;;;;;;5000258;28;20601;-76
2023/04/02 08:16:19;;;;;;;2.33;0.70;;;8.50;99.90;;;;;;4983542;28;20521;-76
2023/04/02 08:18:47;;;;;;;2.03;0.83;;;8.60;98.80;;;;;;5001436;28;20261;-76
2023/04/02 08:21:14;;;;;;;2.90;0.93;;;8.60;99.20;;;;;;5000690;28;20713;-76
2023/04/02 08:23:41;;;;;;;2.37;0.80;;;8.50;98.20;;;;;;5000667;28;20237;-76
2023/04/02 08:26:08;;;;;;;3.07;0.70;;;8.30;98.50;;;;;;5001072;28;20227;-76
2023/04/02 08:28:35;;;;;;;2.77;1.07;;;8.00;98.70;;;;;;4999071;28;20256;-77
2023/04/02 08:31:03;;;;;;;3.27;1.03;;;7.90;99.40;;;;;;5001454;28;20225;-76
2023/04/02 08:33:30;;;;;;;4.17;1.00;;;7.90;99.90;;;;;;4999263;28;20389;-76
2023/04/02 08:35:58;;;;;;;2.73;0.87;;;8.10;99.80;;;;;;5000441;28;20228;-76
2023/04/02 08:38:25;;;;;;;2.93;1.10;;;8.40;98.90;;;;;;4989817;28;20771;-76
2023/04/02 08:40:54;;;;;;;2.33;0.90;;;8.70;99.20;;;;;;4985863;28;20227;-76
2023/04/02 08:43:40;;;;;;;2.40;0.93;;;8.90;98.40;;;;;;5000864;28;20224;-76
2023/04/02 08:46:14;;;;;;;3.03;0.90;;;9.10;98.00;;;;;;4983101;28;20595;-76
2023/04/02 08:48:47;;;;;;;2.10;0.73;;;9.30;98.20;;;;;;4999357;28;20238;-76
2023/04/02 08:51:23;;;;;;;2.90;1.00;;;9.40;98.70;;;;;;4999436;28;20313;-77
2023/04/02 08:53:51;;;;;;;1.60;0.80;;;9.60;97.80;;;;;;4998436;28;20588;-76
2023/04/02 08:56:24;;;;;;;2.27;0.83;;;9.90;97.90;;;;;;4997214;28;20613;-77
2023/04/02 08:58:54;;;;;;;2.60;0.90;;;10.20;97.30;;;;;;4982398;28;20486;-76
2023/04/02 09:01:33;;;;;;;3.87;0.93;;;10.50;96.80;;;;;;4998930;28;20322;-76
2023/04/02 09:04:02;;;;;;;4.97;1.00;;;10.80;96.30;;;;;;4983523;28;20224;-77
2023/04/02 09:06:30;;;;;;;3.13;0.93;;;11.10;96.80;;;;;;4999600;28;20226;-76
2023/04/02 09:08:57;;;;;;;2.90;0.90;;;11.40;96.00;;;;;;4999902;28;20253;-76
2023/04/02 09:11:27;;;;;;;2.47;0.90;;;11.70;94.90;;;;;;4998993;28;20227;-77
2023/04/02 09:13:57;;;;;;;1.93;0.70;;;12.00;94.30;;;;;;4998294;28;20220;-76
2023/04/02 09:16:35;;;;;;;1.53;0.50;;;12.30;93.50;;;;;;4996386;28;20595;-77
2023/04/02 09:19:01;;;;;;;1.27;0.80;;;12.50;92.60;;;;;;4978962;28;20217;-76
2023/04/02 09:21:37;;;;;;;2.10;0.70;;;12.80;93.10;;;;;;5001219;28;20746;-76
2023/04/02 09:24:04;;;;;;;2.27;0.80;;;12.80;89.20;;;;;;4997419;28;20228;-76
2023/04/02 09:26:33;;;;;;;2.30;1.00;;;12.60;87.10;;;;;;5000330;28;20792;-76
2023/04/02 09:29:15;;;;;;;3.17;0.90;;;12.40;87.90;;;;;;4998477;28;20225;-76
2023/04/02 09:31:45;;;;;;;2.43;0.80;;;12.10;86.10;;;;;;4997697;28;20316;-76
2023/04/02 09:34:30;;;;;;;2.07;0.80;;;11.90;88.90;;;;;;4997951;28;20228;-77
2023/04/02 09:37:07;;;;;;;1.20;0.70;;;11.90;90.70;;;;;;5001522;28;20587;-77
2023/04/02 09:39:34;;;;;;;2.30;0.90;;;12.00;90.20;;;;;;4983225;28;20659;-77
2023/04/02 09:42:05;;;;;;;3.83;0.90;;;12.10;91.20;;;;;;4998906;28;20431;-76
2023/04/02 09:44:32;;;;;;;2.60;0.90;;;12.30;88.70;;;;;;4999592;28;20230;-76
2023/04/02 09:47:02;;;;;;;1.77;0.67;;;12.40;88.60;;;;;;4994910;28;20500;-76
2023/04/02 09:49:31;;;;;;;2.00;1.00;;;12.50;86.40;;;;;;5000836;28;20223;-76
2023/04/02 09:52:27;;;;;;;1.67;0.73;;;12.60;87.50;;;;;;4994731;28;20220;-76
2023/04/02 09:55:18;;;;;;;2.03;0.90;;;12.60;85.60;;;;;;4984310;28;20236;-77
2023/04/02 09:57:47;;;;;;;1.03;0.60;;;12.60;86.60;;;;;;4999275;28;20226;-76
2023/04/02 10:00:21;;;;;;;3.37;0.90;;;12.60;85.90;;;;;;4997307;28;20217;-77
2023/04/02 10:03:02;;;;;;;1.73;0.87;;;12.40;83.60;;;;;;5000899;28;20225;-77
2023/04/02 10:05:31;;;;;;;1.60;0.60;;;12.40;84.60;;;;;;5001570;28;20581;-76
2023/04/02 10:08:08;;;;;;;1.30;0.60;;;12.30;82.70;;;;;;5001030;28;20224;-75
2023/04/02 10:10:39;;;;;;;1.60;0.73;;;12.30;84.70;;;;;;4983231;28;20255;-77
2023/04/02 10:13:09;;;;;;;1.47;0.60;;;12.40;87.10;;;;;;5002045;28;20266;-77
2023/04/02 10:15:41;;;;;;;2.20;0.70;;;12.40;83.50;;;;;;5001072;28;20245;-76
2023/04/02 10:18:14;;;;;;;1.10;0.50;;;12.40;84.10;;;;;;5000729;28;20311;-76
2023/04/02 10:20:44;;;;;;;4.13;0.80;;;12.40;83.00;;;;;;4979020;28;20244;-76
2023/04/02 10:23:16;;;;;;;1.90;0.70;;;12.40;80.80;;;;;;4992327;28;20240;-81
2023/04/02 10:25:49;;;;;;;3.40;0.70;;;12.50;81.70;;;;;;5007084;28;20226;-76
2023/04/02 10:28:27;;;;;;;2.13;0.70;;;12.60;82.80;;;;;;5004336;28;20509;-77
2023/04/02 10:31:02;;;;;;;3.20;0.70;;;12.60;82.30;;;;;;4978947;28;20239;-77
2023/04/02 10:33:35;;;;;;;2.73;0.70;;;12.80;84.20;;;;;;5005253;28;20282;-77
2023/04/02 10:36:09;;;;;;;2.20;0.70;;;12.90;84.50;;;;;;5002015;28;20732;-76
2023/04/02 10:38:50;;;;;;;2.93;0.80;;;12.90;83.90;;;;;;5003904;28;20259;-76
2023/04/02 10:41:31;;;;;;;1.90;0.70;;;13.00;81.70;;;;;;5004759;28;20320;-76
2023/04/02 10:44:24;;;;;;;3.27;0.70;;;12.90;83.00;;;;;;5005307;28;20807;-77
2023/04/02 10:47:02;;;;;;;1.63;0.80;;;12.70;80.70;;;;;;4985224;28;20239;-77
2023/04/02 10:49:36;;;;;;;2.57;0.80;;;12.60;81.60;;;;;;5002168;28;20362;-77
2023/04/02 10:52:08;;;;;;;2.93;0.80;;;12.40;80.90;;;;;;5004778;28;20231;-78
2023/04/02 10:54:45;;;;;;;2.33;0.80;;;12.30;80.90;;;;;;4989916;28;20569;-78
2023/04/02 10:57:22;;;;;;;1.47;0.63;;;12.10;82.50;;;;;;5000446;28;20256;-78
2023/04/02 10:59:53;;;;;;;1.70;0.67;;;12.10;85.40;;;;;;4988374;28;20745;-78
2023/04/02 11:02:32;;;;;;;3.50;0.63;;;12.10;75.90;;;;;;5002960;28;20326;-78
2023/04/02 11:05:03;;;;;;;1.10;0.60;;;11.80;76.80;;;;;;4989274;28;20237;-78
2023/04/02 11:07:34;;;;;;;1.70;0.70;;;11.70;80.20;;;;;;5004420;28;20242;-79
2023/04/02 11:10:03;;;;;;;3.07;0.60;;;11.50;82.90;;;;;;4992052;28;20236;-79
2023/04/02 11:12:37;;;;;;;1.53;0.70;;;11.60;85.00;;;;;;5005078;28;20255;-79
2023/04/02 11:15:13;;;;;;;2.17;0.80;;;11.80;82.20;;;;;;5005170;28;20279;-79
2023/04/02 11:17:40;;;;;;;2.37;0.60;;;12.00;84.60;;;;;;4989543;28;20747;-78
2023/04/02 11:20:42;;;;;;;2.97;0.73;;;12.20;81.80;;;;;;5008550;28;20218;-79
2023/04/02 11:23:10;;;;;;;1.30;0.70;;;12.30;83.20;;;;;;4978094;28;22247;-79
2023/04/02 11:25:39;;;;;;;2.77;0.63;;;12.30;81.90;;;;;;5008657;28;20285;-79
2023/04/02 11:28:26;;;;;;;1.67;0.70;;;12.30;81.00;;;;;;5001948;28;20569;-79
2023/04/02 11:30:54;;;;;;;3.33;0.73;;;12.20;78.70;;;;;;5008113;28;20232;-79
2023/04/02 11:33:38;;;;;;;1.53;0.70;;;12.10;81.60;;;;;;5007335;28;20220;-79
2023/04/02 11:36:30;;;;;;;2.17;0.70;;;12.10;81.10;;;;;;5006041;28;20247;-78
2023/04/02 11:38:57;;;;;;;1.83;0.73;;;12.10;82.90;;;;;;5003918;28;20227;-79
2023/04/02 11:42:03;;;;;;;1.13;0.60;;;12.10;82.40;;;;;;5008717;28;20299;-79
2023/04/02 11:44:30;;;;;;;2.77;0.60;;;12.10;80.80;;;;;;4920488;28;20232;-79
2023/04/02 11:47:16;;;;;;;2.07;0.70;;;12.00;80.00;;;;;;4919741;28;20233;-79
2023/04/02 11:50:04;;;;;;;2.07;0.70;;;11.90;81.00;;;;;;4965536;28;20358;-79
2023/04/02 11:52:38;;;;;;;1.20;0.70;;;11.80;78.90;;;;;;4999787;28;20927;-79
2023/04/02 11:55:25;;;;;;;2.63;0.80;;;11.80;80.80;;;;;;4986090;28;20227;-79
2023/04/02 11:58:35;;;;;;;3.20;1.10;;;11.80;81.80;;;;;;5003257;28;20291;-79
2023/04/02 12:01:28;;;;;;;2.60;1.07;;;11.90;81.50;;;;;;5004655;28;20230;-79
2023/04/02 12:04:28;;;;;;;1.83;0.77;;;12.00;82.70;;;;;;5006932;28;20225;-79
2023/04/02 12:07:11;;;;;;;1.10;0.70;;;12.00;77.70;;;;;;4989433;28;20235;-79
2023/04/02 12:09:45;;;;;;;2.90;1.00;;;12.00;79.50;;;;;;5005835;28;20225;-79
2023/04/02 12:12:18;;;;;;;6.80;1.03;;;11.90;79.00;;;;;;5000958;28;20249;-79
2023/04/02 12:14:48;;;;;;;3.80;1.00;;;11.70;78.70;;;;;;4986121;28;20708;-79
2023/04/02 12:17:21;;;;;;;2.03;0.90;;;11.60;81.50;;;;;;5005105;28;20699;-78
2023/04/02 12:19:50;;;;;;;1.77;0.80;;;11.60;80.50;;;;;;5006002;28;20228;-79
2023/04/02 12:22:21;;;;;;;1.67;0.73;;;11.60;77.50;;;;;;4985700;28;20222;-79
2023/04/02 12:24:49;;;;;;;1.17;0.60;;;11.60;80.40;;;;;;5004017;28;20599;-79
2023/04/02 12:27:21;;;;;;;7.13;4.47;;;11.60;80.10;;;;;;5002918;28;20236;-79
2023/04/02 12:29:51;;;;;;;3.67;1.40;;;11.60;78.70;;;;;;5009486;28;20223;-78
2023/04/02 12:32:23;;;;;;;2.70;0.87;;;11.50;80.00;;;;;;5003274;28;20291;-79
2023/04/02 12:34:51;;;;;;;2.80;1.20;;;11.50;81.20;;;;;;5003971;28;20239;-79
2023/04/02 12:37:22;;;;;;;1.73;0.90;;;11.50;80.20;;;;;;5003348;28;20255;-79
2023/04/02 12:39:54;;;;;;;4.03;1.10;;;11.60;83.20;;;;;;5002534;28;20240;-78
2023/04/02 12:42:32;;;;;;;2.93;1.20;;;11.60;80.90;;;;;;5001244;28;20607;-79
2023/04/02 12:45:01;;;;;;;4.20;1.40;;;11.60;81.40;;;;;;4999131;28;20806;-77
2023/04/02 12:47:28;;;;;;;2.20;1.03;;;11.70;82.20;;;;;;5001438;28;20231;-78
2023/04/02 12:49:58;;;;;;;1.57;0.60;;;11.60;79.80;;;;;;5003894;28;20241;-77
2023/04/02 12:52:27;;;;;;;4.37;1.67;;;11.60;78.10;;;;;;5002465;28;20256;-77
2023/04/02 12:54:56;;;;;;;4.60;1.10;;;11.40;78.20;;;;;;4988825;28;20800;-77
2023/04/02 12:57:32;;;;;;;2.93;1.40;;;11.10;78.80;;;;;;4987378;28;21013;-80
2023/04/02 13:00:04;;;;;;;3.63;1.20;;;10.80;78.30;;;;;;4983408;28;20272;-80
2023/04/02 13:02:33;;;;;;;2.50;1.00;;;10.60;81.30;;;;;;5003763;28;20748;-81
2023/04/02 13:05:02;;;;;;;4.40;1.40;;;10.40;83.10;;;;;;5007006;28;20225;-80
2023/04/02 13:07:31;;;;;;;3.10;1.20;;;10.30;82.50;;;;;;4987933;28;20233;-80
2023/04/02 13:10:00;;;;;;;1.60;1.03;;;10.40;83.90;;;;;;5006284;28;20247;-80
2023/04/02 13:12:32;;;;;;;4.20;1.30;;;10.50;84.00;;;;;;5004130;28;20245;-80
2023/04/02 13:15:03;;;;;;;2.07;0.83;;;10.60;85.20;;;;;;5006789;28;20267;-79
2023/04/02 13:17:38;;;;;;;1.87;0.70;;;10.70;83.70;;;;;;5006462;28;20236;-80
2023/04/02 13:20:27;;;;;;;3.13;1.20;;;10.80;82.50;;;;;;5005943;28;20334;-80
2023/04/02 13:22:54;;;;;;;1.60;0.90;;;10.80;82.70;;;;;;5005455;28;20795;-79
2023/04/02 13:25:27;;;;;;;2.70;1.00;;;10.80;82.50;;;;;;5007411;28;20223;-80